SVFM weather

Francisco de Miranda Airport
La Carlota, Miranda, Venezuela

Public forecast

Using degrees Celsius for public forecast. Weather courtesy of forecast.io.

Current aviation weather report (METAR) for Francisco de Miranda Airport

Retrieved 2020/08/07 14:02 UTC (54 minutes ago):

SVFM 071402Z AUTO 00000KT NCD 24/21 Q1018

Closest aviation forecast (TAF) to Francisco de Miranda Airport

Closest forecast is Simón Bolívar International Airport, 11.2 nm (20.7 km) NW. Retrieved 2020/08/07 12:03 UTC (3 hours ago):

TAF SVMI 071000Z 0712/0812 06006KT 9999 SCT016 TX32/0618Z TN24/0608Z BECMG 0712/0716 11005KT 9000 -DZ BKN016